Terminal Aerodrome Forecast
Issued by NWS

Home | Current Version | Previous Version | Text Only | Print | Product List | Glossary On
Versions: 1 2 3 4 5 6 7 8 9 10 11 12 13 14
000
FTUS44 KTSA 160500
TAFXNA
TAF
KXNA 160520Z 1606/1706 00000KT P6SM BKN012
     FM160900 29002KT 4SM BR OVC007
     FM161200 04002KT 2SM BR OVC007
     FM161500 00000KT P6SM OVC015
     FM161800 35004KT P6SM OVC050
     FM162100 VRB03KT P6SM BKN250=

USA.gov is the U.S. government's official web portal to all federal, state and local government web resources and services.